ETIC

Grafenwohr Army Air Field Airport

Germany
METAR ETIC 231056Z AUTO 26003KT 9999 OVC009 04/03 A3026 RMK AO2 CIG 009V011 SLP269 T00350029 $
Observed Flight Rules
Jan-23 @ 10:56 UTC (49 minutes ago) Instrument Flight Rules
Wind Visibility Clouds
260° at 3 knots 10,000+ meters
  • Overcast at 900' AGL
Temperatures Readings
Current 4°C / 39°F
Dewpoint 3°C / 37°F
Humidity 93%
Altimeter 30.26" Hg
Pressure 1026.9 hPa
Elevation 415
METAR ETIC 231056Z AUTO 26003KT 9999 OVC009 04/03 A3026 RMK AO2 CIG 009V011 SLP269 T00350029 $
Observed Flight Rules
Jan-23 @ 10:56 UTC
(49 minutes ago)
IFR
Wind Visibility
260° at 3 knots 10,000+ meters
Clouds
  • Overcast at 900' AGL
Temperature Dewpoint
4°C / 39°F 3°C / 37°F
Humidity Altimeter Pressure
93% 30.26" Hg 1026.9 hPa